Terminal Aerodrome Forecast
Issued by NWS

Home | Current Version | Previous Version | Text Only | Print | Product List | Glossary On
Versions: 1 2 3 4 5 6 7 8 9 10 11 12 13 14 15 16 17 18 19 20 21 22 23 24 25 26 27 28 29 30 31 32 33
000
FTUS44 KOUN 180934 AAA
TAFHBR
TAF AMD
KHBR 180934Z 1810/1906 17004KT 1/2SM FG SCT001
     FM181400 17013KT 2SM BR OVC007
     FM181800 18011KT 5SM HZ OVC015
     FM182100 19010KT P6SM OVC100
     FM190000 15009KT P6SM BKN250 PROB30 1900/1906 P6SM TS BKN050CB=

USA.gov is the U.S. government's official web portal to all federal, state and local government web resources and services.